Time;durP1;ratioP1;P1;durP2;ratioP2;P2;SDS_P1;SDS_P2;PMS_P1;PMS_P2;Temp;Humidity;BMP_temperature;BMP_pressure;BME280_temperature;BME280_humidity;BME280_pressure;Samples;Min_cycle;Max_cycle;Signal;HPM_P1;HPM_P2
2023/06/06 00:00:22;;;;;;;5.73;4.93;;;17.50;71.40;;;20.27;49.21;102049.72;5056146;28;20193;-64
2023/06/06 00:02:51;;;;;;;4.77;3.90;;;17.50;71.60;;;20.24;49.74;102042.94;5055135;28;20601;-64
2023/06/06 00:05:20;;;;;;;7.07;4.93;;;17.50;71.80;;;20.23;49.25;102041.28;5055274;28;20543;-64
2023/06/06 00:07:48;;;;;;;5.23;4.73;;;17.40;71.70;;;20.19;49.35;102040.84;5049857;28;20198;-64
2023/06/06 00:10:18;;;;;;;8.60;5.23;;;17.40;71.90;;;20.15;49.68;102042.31;5035364;28;20194;-64
2023/06/06 00:12:52;;;;;;;7.90;4.90;;;17.40;72.00;;;20.11;49.51;102035.69;5035043;28;20194;-64
2023/06/06 00:15:19;;;;;;;6.00;4.70;;;17.30;72.20;;;20.10;49.96;102039.41;5034742;28;20221;-68
2023/06/06 00:17:55;;;;;;;7.70;5.50;;;17.30;72.20;;;20.10;49.68;102043.94;5034996;28;20218;-65
2023/06/06 00:20:24;;;;;;;5.87;4.43;;;17.30;72.40;;;20.08;50.15;102040.66;5049591;28;20573;-65
2023/06/06 00:22:53;;;;;;;7.43;4.83;;;17.30;72.60;;;20.05;50.24;102041.88;5054310;28;20228;-64
2023/06/06 00:25:20;;;;;;;6.83;4.50;;;17.30;72.70;;;20.02;49.84;102036.94;5052781;28;20210;-64
2023/06/06 00:27:47;;;;;;;7.03;4.90;;;17.30;72.90;;;20.01;50.02;102037.97;5054730;28;20198;-62
2023/06/06 00:30:14;;;;;;;6.43;5.20;;;17.20;72.70;;;20.01;50.07;102032.63;5054993;28;20229;-64
2023/06/06 00:32:41;;;;;;;8.00;5.50;;;17.20;72.90;;;20.00;50.44;102033.66;5054532;28;20186;-65
2023/06/06 00:35:09;;;;;;;6.03;5.00;;;17.20;73.10;;;20.00;50.13;102039.00;5054377;28;20613;-64
2023/06/06 00:37:38;;;;;;;5.13;4.63;;;17.20;72.80;;;19.99;50.03;102032.00;5054467;28;20275;-65
2023/06/06 00:40:07;;;;;;;5.70;4.80;;;17.20;72.80;;;19.97;50.12;102031.38;5053479;28;20226;-66
2023/06/06 00:42:34;;;;;;;6.50;4.87;;;17.20;72.70;;;19.95;50.30;102029.94;5040157;28;20729;-63
2023/06/06 00:45:01;;;;;;;7.67;5.40;;;17.20;72.60;;;19.92;49.94;102031.16;5033130;28;20253;-63
2023/06/06 00:47:29;;;;;;;7.27;5.47;;;17.20;72.90;;;19.90;50.30;102027.03;5034866;28;20187;-66
2023/06/06 00:49:57;;;;;;;6.57;5.27;;;17.10;72.90;;;19.88;50.47;102029.09;5034721;28;20221;-65
2023/06/06 00:52:25;;;;;;;7.47;5.40;;;17.10;73.10;;;19.84;50.41;102028.69;5034817;28;20198;-64
2023/06/06 00:54:53;;;;;;;7.87;5.50;;;17.10;73.10;;;19.82;50.25;102022.75;5034629;28;20290;-65
2023/06/06 00:57:21;;;;;;;9.13;6.70;;;17.10;73.30;;;19.80;50.66;102027.44;5053897;28;20554;-65
2023/06/06 00:59:48;;;;;;;8.83;5.77;;;17.00;73.30;;;19.79;50.67;102035.66;5052353;28;20205;-65
2023/06/06 01:02:18;;;;;;;7.83;5.57;;;17.00;73.40;;;19.79;50.50;102028.47;5054076;28;20247;-64
2023/06/06 01:04:47;;;;;;;12.40;6.37;;;17.00;73.40;;;19.80;50.79;102032.78;5053628;28;20301;-66
2023/06/06 01:07:17;;;;;;;7.13;4.70;;;17.00;73.40;;;19.80;50.79;102027.44;5052509;28;20194;-63
2023/06/06 01:09:45;;;;;;;8.43;5.23;;;17.00;73.60;;;19.86;50.60;102026.66;5033966;28;20199;-62
2023/06/06 01:12:32;;;;;;;9.07;5.20;;;17.10;73.60;;;19.88;50.69;102027.25;5033678;28;20194;-64
2023/06/06 01:15:11;;;;;;;8.23;4.77;;;17.10;73.40;;;19.93;50.56;102024.81;5037006;28;20205;-66
2023/06/06 01:17:41;;;;;;;9.10;5.33;;;17.10;73.10;;;19.96;50.09;102020.91;5054069;28;20535;-64
2023/06/06 01:20:11;;;;;;;5.60;4.60;;;17.20;73.00;;;19.95;49.96;102025.41;5054156;28;20200;-65
2023/06/06 01:22:43;;;;;;;5.20;4.23;;;17.20;72.70;;;19.94;50.13;102021.13;5053738;28;20555;-65
2023/06/06 01:25:12;;;;;;;6.80;4.60;;;17.20;72.70;;;19.96;50.34;102021.72;5053231;28;20224;-65
2023/06/06 01:27:39;;;;;;;6.53;4.77;;;17.20;72.70;;;19.97;50.38;102023.34;5053907;28;20634;-65
2023/06/06 01:30:08;;;;;;;5.97;4.53;;;17.20;72.80;;;19.98;50.47;102025.00;5054031;28;20186;-64
2023/06/06 01:32:46;;;;;;;6.70;4.30;;;17.20;72.60;;;19.97;50.25;102027.88;5051961;28;20566;-65
2023/06/06 01:35:23;;;;;;;5.10;4.60;;;17.20;72.50;;;19.96;49.98;102023.56;5053854;28;20205;-66
2023/06/06 01:37:59;;;;;;;6.63;4.90;;;17.20;72.30;;;19.92;50.01;102014.31;5053754;28;20198;-65
2023/06/06 01:40:31;;;;;;;5.63;4.63;;;17.20;72.20;;;19.86;49.80;102020.47;5052526;28;20195;-65
2023/06/06 01:43:02;;;;;;;7.93;5.57;;;17.10;72.30;;;19.82;49.95;102020.06;5052193;28;20198;-65
2023/06/06 01:45:33;;;;;;;6.20;5.20;;;17.10;72.60;;;19.78;50.36;102010.78;5053538;28;20308;-67
2023/06/06 01:48:01;;;;;;;13.07;5.13;;;17.10;73.00;;;19.75;50.28;102019.25;5053515;28;20217;-66
2023/06/06 01:50:29;;;;;;;5.80;4.80;;;17.00;72.80;;;19.70;50.23;102019.03;5053375;28;20194;-66
2023/06/06 01:52:58;;;;;;;9.97;5.60;;;16.90;72.90;;;19.68;50.24;102023.75;5053263;28;20189;-65
2023/06/06 01:55:25;;;;;;;9.40;5.60;;;16.90;73.00;;;19.63;50.66;102020.03;5053527;28;20228;-65
2023/06/06 01:57:52;;;;;;;11.23;5.30;;;16.90;73.20;;;19.56;50.25;102010.13;5053181;28;20271;-68
2023/06/06 02:00:20;;;;;;;7.30;4.67;;;16.80;73.10;;;19.51;50.48;102025.97;5053567;28;20533;-65
2023/06/06 02:02:47;;;;;;;9.23;5.57;;;16.80;73.30;;;19.44;50.41;102027.78;5053480;28;20546;-64
2023/06/06 02:05:14;;;;;;;7.90;6.07;;;16.80;73.30;;;19.40;50.78;102017.69;5050350;28;20248;-65
2023/06/06 02:07:42;;;;;;;11.73;6.03;;;16.70;73.80;;;19.34;50.95;102021.16;5033399;28;20585;-65
2023/06/06 02:10:11;;;;;;;10.50;5.87;;;16.60;73.80;;;19.29;51.08;102015.56;5033120;28;20225;-64
2023/06/06 02:12:38;;;;;;;6.23;4.53;;;16.60;74.20;;;19.25;51.30;102023.19;5044963;28;20735;-66
2023/06/06 02:15:07;;;;;;;7.10;4.57;;;16.50;74.40;;;19.21;51.71;102026.41;5041951;28;20242;-65
2023/06/06 02:17:35;;;;;;;8.00;5.50;;;16.50;74.80;;;19.19;51.39;102023.97;5034245;28;20221;-65
2023/06/06 02:20:04;;;;;;;9.53;5.30;;;16.50;74.70;;;19.18;51.54;102021.50;5034052;28;20270;-67
2023/06/06 02:22:31;;;;;;;10.50;6.17;;;16.40;75.00;;;19.16;51.54;102024.34;5034923;28;20198;-64
2023/06/06 02:24:59;;;;;;;7.37;5.43;;;16.40;75.00;;;19.11;51.50;102020.66;5036275;28;20245;-65
2023/06/06 02:27:29;;;;;;;11.37;6.43;;;16.40;75.00;;;19.08;51.60;102021.03;5057883;28;20185;-64
2023/06/06 02:29:56;;;;;;;9.63;5.53;;;16.30;75.30;;;19.03;51.72;102020.81;5058097;28;20591;-64
2023/06/06 02:32:24;;;;;;;6.40;4.97;;;16.30;75.30;;;19.00;51.78;102018.53;5058901;28;20248;-65
2023/06/06 02:34:51;;;;;;;6.23;5.10;;;16.20;75.50;;;18.98;51.96;102015.22;5058960;28;20210;-67
2023/06/06 02:37:18;;;;;;;9.23;5.13;;;16.20;75.60;;;18.93;52.02;102013.16;5058327;28;20206;-64
2023/06/06 02:39:44;;;;;;;10.27;5.80;;;16.20;75.80;;;18.90;52.16;102014.38;5056289;28;20198;-67
2023/06/06 02:42:12;;;;;;;7.40;4.90;;;16.20;76.00;;;18.89;52.18;102019.94;5057840;28;20740;-65
2023/06/06 02:44:40;;;;;;;7.33;5.07;;;16.10;75.90;;;18.85;52.13;102011.47;5060226;28;20236;-67
2023/06/06 02:47:07;;;;;;;10.30;5.40;;;16.10;76.30;;;18.83;52.17;102012.69;5060430;28;20194;-64
2023/06/06 02:49:34;;;;;;;8.93;5.63;;;16.10;76.20;;;18.84;52.49;102011.69;5060323;28;20194;-65
2023/06/06 02:52:01;;;;;;;9.13;6.37;;;16.00;76.40;;;18.84;52.53;102017.84;5060540;28;20190;-66
2023/06/06 02:54:28;;;;;;;11.23;6.47;;;16.00;76.50;;;18.82;52.45;102011.91;5059469;28;20288;-65
2023/06/06 02:56:55;;;;;;;10.70;6.10;;;16.00;76.40;;;18.81;52.76;102014.75;5057950;28;20225;-65
2023/06/06 02:59:22;;;;;;;7.63;5.97;;;16.00;76.50;;;18.79;52.77;102014.94;5058165;28;20190;-65
2023/06/06 03:01:50;;;;;;;11.57;6.13;;;16.00;76.70;;;18.78;52.64;102015.94;5058106;28;20189;-65
2023/06/06 03:04:17;;;;;;;9.20;6.37;;;16.00;76.70;;;18.80;52.59;102016.56;5056985;28;20234;-65
2023/06/06 03:06:45;;;;;;;9.00;5.27;;;16.00;76.60;;;18.79;52.76;102017.63;5056841;28;20194;-65
2023/06/06 03:09:12;;;;;;;8.67;5.67;;;16.00;76.70;;;18.79;52.90;102022.94;5053877;28;20659;-65
2023/06/06 03:11:39;;;;;;;10.13;6.30;;;16.00;76.80;;;18.81;52.85;102010.22;5041819;28;20229;-65
2023/06/06 03:14:07;;;;;;;10.43;5.77;;;16.00;76.90;;;18.84;52.86;102015.19;5035522;28;20191;-65
2023/06/06 03:16:35;;;;;;;10.20;6.43;;;16.00;77.00;;;18.85;52.68;102016.00;5036325;28;20194;-65
2023/06/06 03:19:03;;;;;;;9.10;6.10;;;16.00;76.80;;;18.81;52.64;102018.25;5035825;28;20214;-65
2023/06/06 03:21:31;;;;;;;10.03;6.40;;;16.00;76.70;;;18.79;52.74;102017.63;5035878;28;20190;-65
2023/06/06 03:23:57;;;;;;;9.90;6.40;;;16.00;76.80;;;18.75;52.75;102016.38;5035787;28;20682;-66
2023/06/06 03:26:26;;;;;;;10.70;6.30;;;15.90;76.70;;;18.72;52.86;102022.09;5049637;28;20201;-65
2023/06/06 03:28:56;;;;;;;6.07;5.10;;;16.00;77.00;;;18.72;53.03;102022.09;5056371;28;20197;-65
2023/06/06 03:31:29;;;;;;;8.90;6.13;;;15.90;77.00;;;18.70;52.97;102021.47;5055843;28;20204;-65
2023/06/06 03:33:57;;;;;;;9.67;6.07;;;15.90;77.20;;;18.72;53.23;102021.25;5055418;28;20662;-65
2023/06/06 03:36:26;;;;;;;8.30;5.83;;;15.90;77.60;;;18.73;53.13;102023.72;5055042;28;20233;-68
2023/06/06 03:38:53;;;;;;;9.70;5.90;;;15.90;77.40;;;18.74;53.23;102030.72;5054005;28;20661;-64
2023/06/06 03:41:20;;;;;;;11.77;6.37;;;15.90;77.50;;;18.76;53.14;102030.50;5047673;28;20197;-67
2023/06/06 03:43:47;;;;;;;11.03;6.27;;;15.90;77.50;;;18.75;53.18;102026.22;5055315;28;20304;-64
2023/06/06 03:46:14;;;;;;;11.30;6.23;;;15.90;77.40;;;18.76;53.19;102026.00;5054257;28;20745;-66
2023/06/06 03:48:41;;;;;;;10.23;6.20;;;15.90;77.40;;;18.76;53.11;102025.16;5055406;28;20217;-66
2023/06/06 03:51:08;;;;;;;13.27;7.37;;;15.90;77.40;;;18.74;53.14;102012.03;5055674;28;20236;-65
2023/06/06 03:53:37;;;;;;;10.80;5.93;;;15.90;77.50;;;18.74;52.89;102014.72;5054616;28;20686;-65
2023/06/06 03:56:04;;;;;;;8.57;6.20;;;15.90;77.50;;;18.73;53.13;102023.72;5055276;28;20224;-66
2023/06/06 03:58:31;;;;;;;10.07;5.87;;;15.90;77.80;;;18.75;53.29;102027.03;5055162;28;20214;-63
2023/06/06 04:00:59;;;;;;;7.97;6.13;;;15.90;77.80;;;18.76;53.29;102028.66;5055231;28;20206;-66
2023/06/06 04:03:27;;;;;;;8.33;5.70;;;15.90;77.90;;;18.76;53.34;102028.66;5054749;28;20190;-65
2023/06/06 04:05:54;;;;;;;9.30;6.00;;;15.90;78.00;;;18.78;53.42;102031.13;5055232;28;20275;-65
2023/06/06 04:08:21;;;;;;;7.27;5.53;;;15.90;78.10;;;18.81;53.45;102026.25;5035941;28;20229;-65
2023/06/06 04:10:50;;;;;;;10.10;6.27;;;15.90;78.10;;;18.84;53.31;102028.53;5035118;28;20229;-66
2023/06/06 04:13:17;;;;;;;8.53;5.73;;;16.00;78.20;;;18.84;53.40;102031.19;5034332;28;20733;-66
2023/06/06 04:15:45;;;;;;;6.10;5.50;;;16.00;78.20;;;18.86;53.50;102037.16;5034841;28;20298;-64
2023/06/06 04:18:12;;;;;;;9.17;5.70;;;16.00;78.20;;;18.91;53.55;102036.56;5035212;28;20210;-65
2023/06/06 04:20:39;;;;;;;7.47;5.27;;;16.00;78.20;;;18.97;53.49;102035.75;5034877;28;20558;-65
2023/06/06 04:23:06;;;;;;;12.23;7.57;;;16.00;78.20;;;19.02;53.52;102033.31;5045479;28;20190;-65
2023/06/06 04:25:33;;;;;;;9.83;5.73;;;16.10;78.00;;;19.06;53.31;102041.78;5054248;28;20236;-66
2023/06/06 04:28:02;;;;;;;10.97;6.10;;;16.20;78.00;;;19.13;53.33;102029.28;5054363;28;20567;-66
2023/06/06 04:30:32;;;;;;;9.67;6.67;;;16.20;78.00;;;19.19;53.25;102036.47;5054695;28;20603;-65
2023/06/06 04:33:00;;;;;;;8.27;6.60;;;16.30;77.80;;;19.24;52.86;102042.06;5052706;28;20566;-66
2023/06/06 04:35:27;;;;;;;7.33;5.53;;;16.30;77.60;;;19.28;52.88;102043.31;5054540;28;20206;-65
2023/06/06 04:37:57;;;;;;;9.03;6.57;;;16.40;77.60;;;19.32;52.96;102041.88;5039285;28;20659;-64
2023/06/06 04:40:32;;;;;;;12.43;6.97;;;16.40;77.30;;;19.34;52.59;102037.16;5045022;28;20194;-63
2023/06/06 04:43:23;;;;;;;9.73;7.03;;;16.40;77.10;;;19.33;52.53;102035.50;5053483;28;20193;-68
2023/06/06 04:45:53;;;;;;;11.97;7.43;;;16.50;77.10;;;19.34;52.35;102034.50;5040713;28;20301;-68
2023/06/06 04:48:25;;;;;;;10.30;7.03;;;16.50;77.10;;;19.32;52.42;102044.56;5049897;28;20193;-65
2023/06/06 04:50:53;;;;;;;10.10;7.13;;;16.50;77.20;;;19.32;52.68;102033.88;5054059;28;20190;-65
2023/06/06 04:53:20;;;;;;;10.20;5.93;;;16.40;77.20;;;19.33;52.66;102033.66;5053857;28;20522;-65
2023/06/06 04:55:47;;;;;;;11.00;6.33;;;16.40;77.40;;;19.36;52.76;102035.16;5054207;28;20540;-65
2023/06/06 04:58:16;;;;;;;10.70;5.67;;;16.50;77.40;;;19.40;52.72;102031.03;5053803;28;20220;-65
2023/06/06 05:00:47;;;;;;;8.43;5.97;;;16.50;77.60;;;19.46;52.72;102030.25;5053395;28;20564;-65
2023/06/06 05:03:18;;;;;;;8.50;6.27;;;16.50;77.40;;;19.50;52.79;102026.16;5051237;28;20190;-65
2023/06/06 05:05:48;;;;;;;9.80;6.77;;;16.60;77.50;;;19.52;52.46;102029.44;5052840;28;20222;-67
2023/06/06 05:08:15;;;;;;;10.33;6.67;;;16.60;77.40;;;19.50;52.69;102018.13;5043322;28;20386;-64
2023/06/06 05:10:42;;;;;;;11.30;7.93;;;16.60;77.50;;;19.49;52.47;102024.53;5034278;28;20682;-67
2023/06/06 05:13:09;;;;;;;10.77;7.53;;;16.60;77.60;;;19.48;52.58;102023.69;5034009;28;20182;-67
2023/06/06 05:15:37;;;;;;;8.50;6.07;;;16.60;77.70;;;19.49;52.66;102030.66;5034370;28;20736;-65
2023/06/06 05:18:05;;;;;;;8.07;6.00;;;16.60;77.90;;;19.54;52.84;102028.22;5033688;28;20706;-66
2023/06/06 05:20:33;;;;;;;13.03;6.93;;;16.60;77.90;;;19.60;52.97;102031.94;5033571;28;20562;-66
2023/06/06 05:23:00;;;;;;;8.63;6.17;;;16.70;78.00;;;19.67;53.05;102024.75;5033537;28;20294;-65
2023/06/06 05:25:27;;;;;;;7.80;6.57;;;16.70;77.90;;;19.76;52.86;102026.22;5039436;28;20219;-66
2023/06/06 05:27:55;;;;;;;9.43;7.00;;;16.80;77.70;;;19.84;52.51;102025.19;5053547;28;20229;-66
2023/06/06 05:30:22;;;;;;;8.70;7.00;;;16.90;77.60;;;19.89;52.33;102028.91;5045943;28;20273;-65
2023/06/06 05:32:49;;;;;;;12.13;6.43;;;17.00;77.60;;;19.97;52.25;102031.38;5032811;28;20285;-64
2023/06/06 05:35:17;;;;;;;7.23;5.97;;;17.00;77.50;;;20.04;52.17;102034.88;5033769;28;20729;-66
2023/06/06 05:37:44;;;;;;;9.07;6.43;;;17.10;77.60;;;20.10;52.35;102034.06;5033220;28;20273;-65
2023/06/06 05:40:11;;;;;;;11.57;7.30;;;17.20;77.40;;;20.18;52.43;102041.88;5035391;28;20277;-65
2023/06/06 05:42:38;;;;;;;7.90;6.23;;;17.20;77.20;;;20.25;52.14;102032.03;5053106;28;20221;-65
2023/06/06 05:45:07;;;;;;;12.47;9.00;;;17.30;77.20;;;20.32;51.87;102033.91;5049443;28;20681;-64
2023/06/06 05:47:33;;;;;;;9.23;7.00;;;17.30;77.00;;;20.39;51.75;102032.03;5033222;28;20225;-66
2023/06/06 05:50:01;;;;;;;10.67;7.30;;;17.40;77.00;;;20.45;51.98;102031.19;5032963;28;20656;-65
2023/06/06 05:52:30;;;;;;;11.00;8.00;;;17.50;76.90;;;20.52;51.79;102038.19;5033047;28;20270;-67
2023/06/06 05:55:03;;;;;;;7.87;5.73;;;17.50;76.80;;;20.58;51.22;102039.22;5032134;28;20594;-66
2023/06/06 05:57:30;;;;;;;10.57;6.03;;;17.60;76.70;;;20.65;51.71;102034.69;5042920;28;20194;-64
2023/06/06 06:00:00;;;;;;;7.00;5.83;;;17.60;76.50;;;20.71;51.30;102033.81;5041460;28;20222;-64
2023/06/06 06:02:28;;;;;;;10.20;6.77;;;17.70;76.40;;;20.78;51.38;102040.00;5053299;28;20194;-64
2023/06/06 06:04:56;;;;;;;7.47;5.80;;;17.70;76.40;;;20.82;50.82;102033.22;5057328;28;20232;-64
2023/06/06 06:07:23;;;;;;;8.43;6.03;;;17.80;76.10;;;20.89;50.95;102034.81;5054395;28;20206;-64
2023/06/06 06:09:52;;;;;;;9.13;6.97;;;17.90;76.00;;;20.98;50.79;102032.75;5037730;28;20198;-64
2023/06/06 06:12:19;;;;;;;7.43;5.03;;;18.00;75.90;;;21.04;51.03;102041.78;5037868;28;20285;-65
2023/06/06 06:14:46;;;;;;;10.87;6.93;;;18.00;75.80;;;21.08;50.28;102038.50;5046284;28;20241;-63
2023/06/06 06:17:13;;;;;;;9.20;6.73;;;18.10;75.60;;;21.12;50.72;102034.38;5037102;28;20186;-65
2023/06/06 06:19:40;;;;;;;6.77;5.23;;;18.10;75.50;;;21.16;50.08;102038.25;5036773;28;20241;-65
2023/06/06 06:22:07;;;;;;;12.13;6.67;;;18.20;75.50;;;21.24;50.07;102037.19;5037034;28;20240;-66
2023/06/06 06:24:34;;;;;;;8.27;5.90;;;18.20;75.40;;;21.30;50.67;102041.72;5051242;28;20268;-68
2023/06/06 06:27:03;;;;;;;8.60;6.20;;;18.30;75.40;;;21.38;50.47;102034.25;5053771;28;20607;-64
2023/06/06 06:29:30;;;;;;;8.87;6.17;;;18.40;75.50;;;21.47;50.04;102037.50;5035961;28;20214;-65
2023/06/06 06:31:57;;;;;;;8.30;6.20;;;18.40;75.10;;;21.54;49.72;102033.75;5036587;28;20218;-66
2023/06/06 06:34:24;;;;;;;10.57;7.60;;;18.50;75.00;;;21.64;49.98;102033.28;5035710;28;20213;-65
2023/06/06 06:36:51;;;;;;;10.03;6.60;;;18.60;74.90;;;21.70;50.12;102043.16;5036245;28;20202;-66
2023/06/06 06:39:19;;;;;;;8.97;6.10;;;18.60;74.70;;;21.79;49.35;102049.06;5049226;28;20296;-64
2023/06/06 06:41:46;;;;;;;10.23;7.17;;;18.70;74.70;;;21.85;49.67;102037.50;5054985;28;20221;-64
2023/06/06 06:44:14;;;;;;;10.20;7.70;;;18.80;74.60;;;21.94;49.79;102038.91;5055943;28;20198;-64
2023/06/06 06:46:41;;;;;;;9.47;6.93;;;18.80;74.50;;;21.98;49.58;102040.09;5056257;28;20198;-64
2023/06/06 06:49:15;;;;;;;11.00;7.23;;;18.90;74.40;;;22.05;49.56;102038.19;5056032;28;20208;-65
2023/06/06 06:51:43;;;;;;;8.90;7.40;;;19.00;74.30;;;22.11;49.04;102034.63;5055800;28;20551;-65
2023/06/06 06:54:11;;;;;;;11.23;7.03;;;19.00;74.10;;;22.15;49.00;102041.22;5054321;28;20236;-65
2023/06/06 06:56:41;;;;;;;12.47;8.07;;;19.00;73.90;;;22.19;48.86;102037.88;5055365;28;20193;-65
2023/06/06 06:59:09;;;;;;;11.00;8.10;;;19.10;73.90;;;22.25;48.76;102036.16;5050338;28;20297;-65
2023/06/06 07:01:38;;;;;;;9.27;7.80;;;19.20;73.60;;;22.31;48.59;102039.84;5044521;28;20198;-65
2023/06/06 07:04:06;;;;;;;10.37;6.53;;;19.20;73.50;;;22.40;48.24;102044.69;5052192;28;20311;-65
2023/06/06 07:06:34;;;;;;;12.97;8.53;;;19.30;73.30;;;22.47;48.32;102044.63;5036037;28;20194;-66
2023/06/06 07:09:04;;;;;;;8.90;6.10;;;19.40;72.80;;;22.50;47.85;102039.66;5039195;28;20202;-65
2023/06/06 07:11:31;;;;;;;9.73;6.43;;;19.50;72.50;;;22.57;48.09;102040.41;5035262;28;20218;-65
2023/06/06 07:13:58;;;;;;;6.87;5.70;;;19.60;72.30;;;22.68;47.84;102053.13;5034916;28;20273;-66
2023/06/06 07:16:25;;;;;;;10.53;6.83;;;19.70;72.20;;;22.80;47.58;102051.34;5051418;28;20221;-64
2023/06/06 07:18:54;;;;;;;8.47;5.87;;;19.70;71.90;;;22.90;47.49;102051.66;5054886;28;20209;-64
2023/06/06 07:21:21;;;;;;;10.20;6.40;;;19.80;71.90;;;22.99;47.12;102049.50;5054434;28;20338;-64
2023/06/06 07:23:49;;;;;;;8.80;7.77;;;19.90;71.50;;;23.09;46.87;102046.28;5043263;28;20665;-65
2023/06/06 07:26:17;;;;;;;8.00;7.10;;;20.00;70.90;;;23.18;46.84;102042.22;5047040;28;20287;-65
2023/06/06 07:28:45;;;;;;;8.50;6.37;;;20.00;70.70;;;23.27;46.72;102046.28;5050898;28;20198;-64
2023/06/06 07:31:12;;;;;;;6.67;6.00;;;20.10;70.70;;;23.40;46.45;102046.13;5055572;28;20272;-64
2023/06/06 07:33:40;;;;;;;6.27;5.60;;;20.30;70.70;;;23.48;46.22;102046.66;5054778;28;20208;-66
2023/06/06 07:36:08;;;;;;;8.00;6.10;;;20.30;69.80;;;23.54;45.84;102048.41;5055198;28;20247;-66
2023/06/06 07:38:44;;;;;;;9.10;7.03;;;20.40;69.30;;;23.57;45.93;102047.13;5054827;28;20193;-64
2023/06/06 07:41:11;;;;;;;7.97;6.90;;;20.50;69.30;;;23.63;45.77;102043.53;5053751;28;20198;-67
2023/06/06 07:43:38;;;;;;;7.67;6.43;;;20.60;69.20;;;23.71;45.58;102037.84;5039985;28;20198;-65
2023/06/06 07:46:24;;;;;;;9.20;7.13;;;20.60;69.00;;;23.77;45.20;102044.97;5035218;28;20301;-64
2023/06/06 07:48:52;;;;;;;6.50;5.67;;;20.70;68.30;;;23.83;45.53;102041.38;5036364;28;20209;-64
2023/06/06 07:51:21;;;;;;;7.83;5.50;;;20.80;68.40;;;23.97;45.33;102036.59;5054723;28;20194;-64
2023/06/06 07:53:48;;;;;;;6.87;5.23;;;20.90;68.30;;;24.11;44.81;102030.81;5054894;28;20232;-64
2023/06/06 07:56:15;;;;;;;8.80;6.30;;;21.00;67.80;;;24.19;44.39;102035.88;5057549;28;20321;-65
2023/06/06 07:58:46;;;;;;;11.33;5.97;;;21.20;67.10;;;24.22;44.09;102040.75;5035542;28;20290;-67
2023/06/06 08:01:13;;;;;;;7.60;5.80;;;21.30;66.80;;;24.28;44.50;102040.88;5048476;28;20674;-64
2023/06/06 08:03:40;;;;;;;8.53;7.23;;;21.40;66.90;;;24.40;44.34;102041.72;5053238;28;20222;-63
2023/06/06 08:06:07;;;;;;;8.50;6.27;;;21.40;66.60;;;24.47;44.22;102035.16;5048873;28;20245;-66
2023/06/06 08:08:40;;;;;;;7.20;5.43;;;21.50;66.40;;;24.54;43.61;102037.72;5034189;28;20260;-66
2023/06/06 08:11:07;;;;;;;7.53;5.80;;;21.50;65.60;;;24.68;43.34;102033.75;5034393;28;20659;-65
2023/06/06 08:13:34;;;;;;;9.03;5.50;;;21.60;65.60;;;25.19;43.33;102036.50;5034072;28;20210;-67
2023/06/06 08:16:01;;;;;;;9.77;7.57;;;21.70;66.10;;;26.23;41.43;102029.78;5052661;28;20259;-65
2023/06/06 08:18:28;;;;;;;10.90;9.33;;;22.00;66.00;;;27.57;38.60;102025.59;5038656;28;20187;-64
2023/06/06 08:20:55;;;;;;;12.57;6.50;;;22.50;65.00;;;29.04;36.78;102028.28;5048505;28;20273;-65
2023/06/06 08:23:23;;;;;;;8.77;5.80;;;23.20;63.50;;;30.42;35.31;102020.88;5040962;28;20244;-66
2023/06/06 08:25:58;;;;;;;11.37;9.90;;;24.00;62.50;;;31.73;32.53;102025.72;5043018;28;20222;-70
2023/06/06 08:28:26;;;;;;;6.43;5.43;;;24.80;60.60;;;32.91;30.50;102027.81;5054324;28;20276;-65
2023/06/06 08:30:53;;;;;;;7.20;5.50;;;25.80;56.40;;;33.80;29.37;102023.31;5053414;28;20220;-65
2023/06/06 08:33:21;;;;;;;4.60;3.93;;;26.60;54.50;;;34.62;27.07;102024.28;5032577;28;20199;-66
2023/06/06 08:35:48;;;;;;;5.70;4.57;;;27.40;51.40;;;35.10;26.92;102025.50;5033900;28;20298;-64
2023/06/06 08:38:15;;;;;;;4.80;4.20;;;28.10;49.40;;;35.50;26.00;102023.72;5052489;28;20263;-63
2023/06/06 08:40:43;;;;;;;5.70;4.10;;;28.80;47.20;;;36.06;25.50;102019.66;5052712;28;20218;-65
2023/06/06 08:43:14;;;;;;;4.63;4.15;;;29.40;46.40;;;36.85;24.72;102015.75;5045300;28;20657;-64
2023/06/06 08:45:51;;;;;;;5.83;4.00;;;30.00;45.80;;;37.64;23.64;102018.28;5036259;28;20210;-65
2023/06/06 08:48:19;;;;;;;4.93;3.95;;;30.50;43.20;;;38.22;23.09;102015.72;5033495;28;20190;-66
2023/06/06 08:50:49;;;;;;;5.38;4.35;;;31.10;41.90;;;38.79;22.56;102012.56;5033450;28;20190;-66
2023/06/06 08:53:16;;;;;;;4.78;4.15;;;31.60;40.30;;;39.23;21.87;102011.94;5033228;28;20301;-65
2023/06/06 08:55:44;;;;;;;9.18;5.38;;;32.00;39.20;;;39.75;21.02;102009.53;5043512;28;20217;-67
2023/06/06 08:58:14;;;;;;;7.43;4.45;;;32.40;37.10;;;39.97;20.01;102008.31;5045256;28;20225;-66
2023/06/06 09:00:41;;;;;;;6.38;4.68;;;32.60;35.50;;;40.06;20.44;102006.31;5053331;28;20201;-65
2023/06/06 09:03:12;;;;;;;7.72;4.45;;;32.80;35.70;;;40.17;20.03;102001.94;5052227;28;20208;-66
2023/06/06 09:05:42;;;;;;;5.00;4.50;;;32.90;35.20;;;40.33;19.91;102000.91;5052449;28;20731;-66
2023/06/06 09:08:09;;;;;;;5.57;4.53;;;33.10;34.20;;;40.49;19.94;102004.63;5043675;28;20273;-65
2023/06/06 09:10:36;;;;;;;5.78;4.50;;;33.30;33.90;;;40.75;19.63;102008.97;5033519;28;20229;-66
2023/06/06 09:13:03;;;;;;;6.28;4.30;;;33.50;33.50;;;41.10;19.01;102008.09;5033488;28;20226;-66
2023/06/06 09:15:31;;;;;;;9.68;5.22;;;33.60;32.30;;;41.09;19.06;102006.50;5034764;28;20226;-65
2023/06/06 09:17:59;;;;;;;9.75;5.97;;;33.80;32.70;;;41.51;19.15;102006.16;5039228;28;20249;-67
2023/06/06 09:20:26;;;;;;;8.70;5.10;;;34.00;33.50;;;42.11;18.13;102005.81;5033231;28;20237;-65
2023/06/06 09:22:57;;;;;;;6.82;4.72;;;34.20;32.10;;;42.34;18.08;102006.75;5051230;28;20528;-66
2023/06/06 09:25:26;;;;;;;4.95;4.32;;;34.40;31.90;;;42.62;17.58;102000.31;5048066;28;20218;-67
2023/06/06 09:27:59;;;;;;;5.20;4.15;;;34.70;31.60;;;42.75;17.38;102004.56;5045300;28;20253;-65
2023/06/06 09:30:28;;;;;;;6.53;5.20;;;34.90;30.60;;;42.76;17.36;102000.63;5052808;28;20194;-65
2023/06/06 09:33:00;;;;;;;6.53;4.70;;;35.00;30.40;;;42.73;16.80;102001.34;5049066;28;20221;-65
2023/06/06 09:35:33;;;;;;;5.93;4.32;;;35.10;29.60;;;42.47;17.03;101999.97;5051357;28;20210;-65
2023/06/06 09:38:09;;;;;;;5.75;4.05;;;35.00;29.40;;;42.51;17.02;102002.84;5048961;28;20281;-64
2023/06/06 09:40:44;;;;;;;5.50;4.72;;;35.10;29.60;;;42.73;16.66;101995.81;5050943;28;20220;-66
2023/06/06 09:43:12;;;;;;;5.68;4.15;;;35.20;29.10;;;42.82;16.74;101999.19;5048636;28;20236;-65
2023/06/06 09:45:49;;;;;;;6.63;4.88;;;35.20;29.20;;;42.78;16.36;101987.22;5044580;28;20226;-65
2023/06/06 09:48:27;;;;;;;5.35;4.85;;;35.10;28.40;;;42.41;16.95;101989.53;5052842;28;20213;-66
2023/06/06 09:50:55;;;;;;;5.47;4.03;;;35.00;29.00;;;42.50;16.49;101992.94;5049647;28;20214;-65
2023/06/06 09:53:25;;;;;;;4.90;4.38;;;35.00;29.10;;;42.66;16.37;101990.13;5033078;28;20218;-65
2023/06/06 09:55:55;;;;;;;5.47;3.88;;;35.10;28.90;;;42.90;16.15;101984.34;5040149;28;20702;-66
2023/06/06 09:58:25;;;;;;;4.55;3.97;;;35.10;28.00;;;42.98;15.60;101986.88;5051532;28;20231;-65
2023/06/06 10:00:57;;;;;;;6.07;4.60;;;35.10;28.60;;;43.18;15.93;101989.66;5047876;28;20312;-65
2023/06/06 10:03:26;;;;;;;6.07;3.72;;;35.40;28.40;;;43.45;15.68;101992.25;5049264;28;20186;-66
2023/06/06 10:05:54;;;;;;;6.30;4.53;;;35.50;28.40;;;43.45;15.37;101989.47;5050637;28;20215;-66
2023/06/06 10:08:23;;;;;;;6.90;3.90;;;35.50;27.70;;;43.56;15.42;101984.91;5038323;28;20248;-67
2023/06/06 10:10:50;;;;;;;4.85;4.10;;;35.60;27.70;;;43.38;15.78;101981.00;5045493;28;20651;-64
2023/06/06 10:13:22;;;;;;;4.35;3.95;;;35.50;27.70;;;43.59;15.85;101983.38;5035178;28;20643;-65
2023/06/06 10:15:50;;;;;;;6.15;3.88;;;35.70;28.10;;;44.12;15.46;101985.16;5047322;28;20218;-65